Pleasant Plains, Illinois
Current Conditions -  °F | °C
As of 5:52 PM on Saturday 25 Oct 2014 (Local Time) from KSPI Reporting Station
Clear Clear  
Wind Chill: 73°   Ceiling: Unl
Heat Index: 73°   Visibility: 10mi
Dew Point: 44°   Wind: 6mph
Humidity: 35%   Direction: 290°WNW
Pressure: 30"   Gusts: NA
Location:  39.87°N, 89.92°W
Report Text: KSPI 252252Z 29005KT 10SM CLR 23/07 A3000 RMK AO2 SLP157 T02280067
Loading
Personal Weather Stations






























Interactive Weather Map New forecast layout! Learn more

10-Day Weather Forecast

Advertisements
Track Severe Weather on mobile